createdAt,value
2019-01-17T00:01:42.918Z,18.17
2019-01-17T00:04:26.241Z,18.73
2019-01-17T00:07:13.931Z,17.80
2019-01-17T00:09:47.067Z,18.53
2019-01-17T00:12:21.206Z,19.07
2019-01-17T00:15:02.193Z,19.03
2019-01-17T00:17:35.330Z,16.90
2019-01-17T00:20:21.824Z,18.60
2019-01-17T00:22:58.822Z,18.43
2019-01-17T00:25:46.553Z,18.40
2019-01-17T00:28:17.925Z,16.77
2019-01-17T00:30:49.414Z,18.30
2019-01-17T00:33:24.290Z,15.90
2019-01-17T00:36:01.491Z,16.77
2019-01-17T00:38:36.038Z,15.83
2019-01-17T00:41:08.946Z,15.90
2019-01-17T00:43:40.677Z,17.10
2019-01-17T00:46:27.286Z,17.17
2019-01-17T00:48:58.843Z,17.30
2019-01-17T00:51:44.943Z,18.03
2019-01-17T00:54:22.330Z,18.27
2019-01-17T00:56:55.635Z,16.37
2019-01-17T00:59:44.410Z,17.90
2019-01-17T01:02:22.226Z,17.77
2019-01-17T01:05:02.043Z,18.80
2019-01-17T01:07:42.305Z,17.63
2019-01-17T01:10:28.425Z,17.83
2019-01-17T01:12:59.887Z,16.50
2019-01-17T01:15:50.055Z,16.97
2019-01-17T01:18:21.904Z,16.27
2019-01-17T01:20:56.278Z,17.33
2019-01-17T01:23:39.819Z,15.93
2019-01-17T01:26:24.616Z,16.67
2019-01-17T01:29:12.112Z,14.17
2019-01-17T01:31:46.130Z,15.10
2019-01-17T01:34:20.191Z,15.40
2019-01-17T01:37:03.707Z,15.10
2019-01-17T01:39:36.812Z,14.17
2019-01-17T01:42:25.408Z,12.97
2019-01-17T01:44:57.148Z,12.27
2019-01-17T01:47:37.545Z,14.43
2019-01-17T01:50:14.966Z,13.77
2019-01-17T01:52:46.633Z,14.20
2019-01-17T01:55:16.565Z,12.93
2019-01-17T01:57:47.997Z,12.33
2019-01-17T02:00:18.972Z,12.50
2019-01-17T02:02:49.971Z,12.40
2019-01-17T02:05:25.758Z,12.43
2019-01-17T02:07:55.930Z,11.00
2019-01-17T02:10:26.183Z,11.07
2019-01-17T02:12:56.307Z,11.10
2019-01-17T02:15:26.275Z,12.10
2019-01-17T02:17:56.453Z,10.80
2019-01-17T02:20:26.410Z,10.77
2019-01-17T02:22:56.075Z,11.00
2019-01-17T02:25:25.972Z,9.87
2019-01-17T02:27:55.731Z,10.63
2019-01-17T02:30:25.636Z,10.90
2019-01-17T02:32:57.045Z,10.40
2019-01-17T02:35:27.021Z,11.00
2019-01-17T02:37:56.756Z,10.00
2019-01-17T02:40:26.621Z,11.83
2019-01-17T02:42:56.641Z,12.40
2019-01-17T02:45:27.096Z,12.83
2019-01-17T02:48:01.365Z,13.70
2019-01-17T02:50:40.406Z,13.00
2019-01-17T02:53:11.003Z,13.27
2019-01-17T02:55:40.939Z,14.67
2019-01-17T02:58:12.315Z,13.37
2019-01-17T03:00:43.158Z,13.50
2019-01-17T03:03:13.167Z,13.23
2019-01-17T03:05:42.863Z,13.37
2019-01-17T03:08:12.704Z,12.80
2019-01-17T03:10:44.568Z,13.43
2019-01-17T03:13:14.593Z,12.07
2019-01-17T03:15:46.224Z,12.70
2019-01-17T03:18:16.063Z,12.10
2019-01-17T03:20:46.046Z,12.63
2019-01-17T03:23:16.926Z,12.97
2019-01-17T03:25:46.740Z,13.70
2019-01-17T03:28:18.477Z,13.70
2019-01-17T03:30:53.438Z,16.17
2019-01-17T03:33:29.059Z,13.57
2019-01-17T03:35:58.785Z,14.27
2019-01-17T03:38:29.506Z,13.87
2019-01-17T03:41:01.501Z,12.60
2019-01-17T03:43:31.294Z,14.17
2019-01-17T03:46:03.666Z,12.87
2019-01-17T03:48:33.453Z,12.93
2019-01-17T03:51:06.460Z,13.00
2019-01-17T03:53:41.057Z,12.40
2019-01-17T03:56:10.972Z,13.37
2019-01-17T03:58:42.309Z,13.07
2019-01-17T04:01:12.165Z,11.70
2019-01-17T04:03:41.933Z,12.17
2019-01-17T04:06:11.762Z,10.70
2019-01-17T04:08:41.633Z,12.00
2019-01-17T04:11:11.571Z,13.30
2019-01-17T04:13:41.346Z,13.43
2019-01-17T04:16:11.246Z,12.17
2019-01-17T04:18:42.188Z,13.70
2019-01-17T04:21:11.920Z,11.93
2019-01-17T04:23:41.716Z,13.10
2019-01-17T04:26:11.663Z,12.33
2019-01-17T04:28:42.932Z,14.87
2019-01-17T04:31:13.837Z,14.53
2019-01-17T04:33:45.143Z,14.23
2019-01-17T04:36:15.005Z,14.07
2019-01-17T04:38:44.781Z,16.03
2019-01-17T04:41:14.601Z,16.80
2019-01-17T04:43:45.263Z,15.00
2019-01-17T04:46:16.729Z,14.40
2019-01-17T04:48:48.231Z,17.40
2019-01-17T04:51:18.102Z,16.53
2019-01-17T04:53:47.868Z,16.47
2019-01-17T04:56:17.859Z,17.03
2019-01-17T04:58:47.643Z,17.60
2019-01-17T05:01:17.456Z,17.43
2019-01-17T05:03:47.406Z,17.00
2019-01-17T05:06:18.175Z,18.00
2019-01-17T05:08:48.003Z,18.90
2019-01-17T05:11:17.977Z,19.50
2019-01-17T05:13:49.621Z,18.30
2019-01-17T05:16:20.403Z,19.50
2019-01-17T05:18:50.128Z,21.70
2019-01-17T05:21:20.031Z,18.97
2019-01-17T05:23:50.224Z,21.33
2019-01-17T05:26:20.975Z,20.87
2019-01-17T05:28:50.663Z,21.97
2019-01-17T05:31:20.513Z,22.27
2019-01-17T05:33:50.238Z,23.13
2019-01-17T05:36:23.092Z,20.80
2019-01-17T05:38:55.202Z,22.70
2019-01-17T05:41:24.634Z,21.83
2019-01-17T05:43:56.691Z,23.07
2019-01-17T05:46:33.621Z,25.03
2019-01-17T05:49:04.525Z,23.03
2019-01-17T05:51:35.991Z,23.50
2019-01-17T05:54:06.856Z,23.30
2019-01-17T05:56:38.589Z,21.53
2019-01-17T05:59:08.324Z,23.77
2019-01-17T06:01:38.295Z,21.93
2019-01-17T06:04:11.104Z,22.17
2019-01-17T06:06:40.906Z,20.67
2019-01-17T06:09:10.662Z,22.10
2019-01-17T06:11:40.525Z,22.53
2019-01-17T06:14:10.340Z,21.13
2019-01-17T06:16:40.056Z,22.00
2019-01-17T06:19:10.285Z,23.13
2019-01-17T06:21:40.029Z,23.77
2019-01-17T06:24:09.913Z,22.03
2019-01-17T06:26:40.764Z,23.40
2019-01-17T06:29:10.539Z,22.83
2019-01-17T06:31:40.471Z,25.50
2019-01-17T06:34:10.283Z,23.93
2019-01-17T06:36:40.287Z,24.77
2019-01-17T06:39:10.144Z,23.90
2019-01-17T06:41:40.059Z,24.73
2019-01-17T06:44:10.086Z,22.00
2019-01-17T06:46:42.719Z,24.00
2019-01-17T06:49:14.229Z,23.77
2019-01-17T06:51:45.105Z,22.60
2019-01-17T06:54:14.839Z,23.63
2019-01-17T06:56:46.302Z,26.27
2019-01-17T06:59:17.121Z,24.17
2019-01-17T07:01:46.959Z,26.93
2019-01-17T07:04:16.729Z,28.60
2019-01-17T07:06:48.240Z,27.70
2019-01-17T07:09:18.116Z,27.10
2019-01-17T07:11:47.984Z,32.17
2019-01-17T07:14:20.377Z,30.27
2019-01-17T07:16:50.377Z,29.40
2019-01-17T07:19:22.155Z,25.93
2019-01-17T07:21:53.536Z,27.20
2019-01-17T07:24:23.474Z,27.17
2019-01-17T07:26:53.339Z,25.47
2019-01-17T07:29:26.144Z,25.60
2019-01-17T07:31:54.369Z,27.10
2019-01-17T07:34:24.247Z,23.30
2019-01-17T07:36:53.922Z,26.23
2019-01-17T07:39:23.706Z,26.50
2019-01-17T07:41:53.689Z,25.03
2019-01-17T07:44:23.560Z,25.37
2019-01-17T07:47:01.316Z,23.03
2019-01-17T07:49:32.651Z,23.30
2019-01-17T07:52:02.430Z,22.93
2019-01-17T07:54:32.209Z,19.97
2019-01-17T07:57:03.961Z,21.77
2019-01-17T07:59:33.799Z,19.90
2019-01-17T08:02:08.430Z,19.50
2019-01-17T08:04:42.258Z,21.43
2019-01-17T08:07:14.120Z,20.30
2019-01-17T08:09:46.178Z,20.80
2019-01-17T08:12:16.003Z,18.30
2019-01-17T08:14:45.740Z,18.17
2019-01-17T08:17:15.757Z,20.00
2019-01-17T08:19:45.603Z,18.43
2019-01-17T08:22:15.612Z,18.30
2019-01-17T08:24:51.474Z,17.37
2019-01-17T08:27:21.379Z,17.43
2019-01-17T08:29:52.292Z,18.70
2019-01-17T08:32:24.098Z,16.87
2019-01-17T08:34:54.030Z,17.23
2019-01-17T08:37:23.831Z,17.70
2019-01-17T08:39:53.625Z,18.40
2019-01-17T08:42:23.689Z,17.30
2019-01-17T08:44:54.648Z,15.93
2019-01-17T08:47:26.464Z,15.37
2019-01-17T08:49:56.246Z,15.50
2019-01-17T08:52:27.950Z,15.40
2019-01-17T08:54:57.701Z,15.97
2019-01-17T08:57:27.540Z,15.27
2019-01-17T08:59:57.410Z,14.90
2019-01-17T09:02:27.316Z,16.23
2019-01-17T09:04:57.119Z,15.80
2019-01-17T09:07:27.158Z,14.93
2019-01-17T09:09:59.468Z,15.50
2019-01-17T09:12:29.226Z,17.27
2019-01-17T09:14:58.825Z,16.37
2019-01-17T09:17:31.803Z,16.03
2019-01-17T09:20:02.490Z,16.30
2019-01-17T09:22:32.915Z,15.20
2019-01-17T09:25:02.860Z,14.53
2019-01-17T09:27:32.749Z,15.17
2019-01-17T09:30:06.249Z,14.97
2019-01-17T09:32:37.013Z,15.17
2019-01-17T09:35:12.405Z,14.60
2019-01-17T09:37:42.267Z,14.07
2019-01-17T09:40:20.233Z,15.30
2019-01-17T09:42:51.860Z,15.43
2019-01-17T09:45:21.650Z,14.80
2019-01-17T09:47:54.424Z,15.30
2019-01-17T09:50:25.774Z,16.33
2019-01-17T09:52:55.888Z,16.50
2019-01-17T09:55:25.958Z,15.93
2019-01-17T09:57:55.844Z,16.53
2019-01-17T10:00:27.550Z,15.23
2019-01-17T10:03:00.595Z,14.73
2019-01-17T10:05:33.301Z,14.67
2019-01-17T10:08:03.322Z,11.63
2019-01-17T10:10:33.122Z,12.50
2019-01-17T10:13:03.042Z,11.53
2019-01-17T10:15:40.113Z,9.90
2019-01-17T10:18:29.799Z,8.70
2019-01-17T10:21:38.540Z,8.03
2019-01-17T10:24:29.350Z,7.50
2019-01-17T10:27:19.191Z,7.03
2019-01-17T10:30:24.001Z,7.17
2019-01-17T10:33:06.607Z,8.00
2019-01-17T10:35:46.007Z,7.70
2019-01-17T10:38:22.810Z,7.70
2019-01-17T10:41:16.253Z,8.53
2019-01-17T10:44:02.577Z,6.27
2019-01-17T10:46:35.472Z,6.87
2019-01-17T10:49:39.638Z,6.10
2019-01-17T10:52:27.136Z,7.10
2019-01-17T10:55:02.737Z,7.03
2019-01-17T10:57:39.128Z,7.03
2019-01-17T11:00:23.694Z,7.73
2019-01-17T11:02:57.570Z,8.87
2019-01-17T11:05:31.221Z,8.30
2019-01-17T11:08:13.106Z,7.93
2019-01-17T11:11:00.614Z,8.03
2019-01-17T11:13:40.295Z,7.50
2019-01-17T11:16:21.775Z,8.30
2019-01-17T11:19:06.284Z,8.60
2019-01-17T11:21:48.289Z,8.80
2019-01-17T11:24:30.009Z,7.50
2019-01-17T11:27:05.538Z,7.40
2019-01-17T11:29:50.293Z,7.03
2019-01-17T11:32:41.012Z,6.07
2019-01-17T11:35:25.760Z,5.80
2019-01-17T11:38:01.178Z,6.63
2019-01-17T11:40:49.788Z,5.93
2019-01-17T11:43:40.465Z,7.00
2019-01-17T11:46:28.242Z,6.93
2019-01-17T11:49:21.660Z,6.87
2019-01-17T11:52:04.469Z,7.03
2019-01-17T11:54:41.032Z,6.00
2019-01-17T11:57:17.349Z,6.87
2019-01-17T12:00:02.211Z,7.07
2019-01-17T12:02:39.610Z,6.00
2019-01-17T12:05:11.624Z,7.13
2019-01-17T12:08:02.312Z,6.80
2019-01-17T12:10:46.741Z,6.63
2019-01-17T12:13:17.505Z,7.60
2019-01-17T12:15:49.458Z,7.50
2019-01-17T12:18:20.335Z,7.33
2019-01-17T12:20:52.107Z,7.73
2019-01-17T12:23:22.032Z,7.10
2019-01-17T12:25:51.914Z,8.10
2019-01-17T12:28:21.791Z,7.90
2019-01-17T12:30:51.791Z,8.60
2019-01-17T12:33:24.795Z,8.40
2019-01-17T12:35:57.715Z,7.87
2019-01-17T12:38:27.302Z,7.47
2019-01-17T12:40:58.368Z,8.40
2019-01-17T12:43:29.237Z,9.37
2019-01-17T12:46:01.047Z,8.83
2019-01-17T12:48:32.452Z,9.10
2019-01-17T12:51:03.857Z,10.70
2019-01-17T12:53:34.985Z,8.83
2019-01-17T12:56:06.323Z,10.70
2019-01-17T12:58:36.125Z,9.83
2019-01-17T13:01:06.164Z,8.60
2019-01-17T13:03:36.015Z,10.63
2019-01-17T13:06:06.127Z,8.20
2019-01-17T13:08:36.437Z,8.83
2019-01-17T13:11:06.216Z,8.00
2019-01-17T13:13:36.124Z,8.33
2019-01-17T13:16:06.198Z,8.03
2019-01-17T13:18:35.967Z,8.27
2019-01-17T13:21:05.816Z,7.37
2019-01-17T13:23:35.632Z,7.90
2019-01-17T13:26:05.582Z,8.13
2019-01-17T13:28:36.544Z,7.97
2019-01-17T13:31:09.111Z,7.10
2019-01-17T13:33:40.080Z,7.27
2019-01-17T13:36:11.614Z,5.90
2019-01-17T13:38:43.082Z,7.43
2019-01-17T13:41:12.920Z,5.37
2019-01-17T13:43:44.907Z,6.17
2019-01-17T13:46:15.116Z,6.43
2019-01-17T13:48:46.491Z,4.73
2019-01-17T13:51:16.287Z,6.50
2019-01-17T13:53:46.310Z,6.60
2019-01-17T13:56:16.164Z,6.07
2019-01-17T13:58:49.033Z,5.73
2019-01-17T14:01:20.798Z,5.13
2019-01-17T14:03:52.113Z,7.30
2019-01-17T14:06:22.107Z,4.40
2019-01-17T14:08:52.089Z,4.80
2019-01-17T14:11:22.772Z,5.10
2019-01-17T14:13:52.667Z,4.83
2019-01-17T14:16:27.375Z,5.27
2019-01-17T14:18:57.072Z,4.87
2019-01-17T14:21:26.896Z,4.57
2019-01-17T14:23:57.611Z,4.23
2019-01-17T14:26:28.390Z,4.33
2019-01-17T14:29:01.031Z,4.73
2019-01-17T14:31:30.783Z,3.80
2019-01-17T14:34:00.627Z,4.57
2019-01-17T14:36:30.699Z,3.97
2019-01-17T14:39:00.281Z,4.17
2019-01-17T14:41:31.114Z,4.17
2019-01-17T14:44:00.899Z,4.30
2019-01-17T14:46:30.601Z,4.83
2019-01-17T14:49:01.354Z,3.93
2019-01-17T14:51:31.555Z,3.90
2019-01-17T14:54:01.314Z,4.53
2019-01-17T14:56:32.146Z,4.70
2019-01-17T14:59:01.946Z,4.47
2019-01-17T15:01:31.607Z,5.40
2019-01-17T15:04:04.241Z,4.20
2019-01-17T15:06:37.148Z,7.73
2019-01-17T15:09:07.371Z,5.33
2019-01-17T15:11:40.554Z,4.47
2019-01-17T15:14:10.411Z,4.50
2019-01-17T15:16:40.162Z,5.10
2019-01-17T15:19:12.471Z,4.50
2019-01-17T15:21:45.248Z,4.07
2019-01-17T15:24:15.130Z,4.70
2019-01-17T15:26:45.181Z,6.00
2019-01-17T15:29:14.875Z,5.63
2019-01-17T15:31:45.833Z,4.70
2019-01-17T15:34:15.805Z,4.93
2019-01-17T15:36:46.648Z,6.00
2019-01-17T15:39:16.803Z,5.33
2019-01-17T15:41:47.635Z,4.90
2019-01-17T15:44:19.465Z,6.03
2019-01-17T15:46:49.477Z,6.07
2019-01-17T15:49:19.384Z,5.67
2019-01-17T15:51:49.296Z,5.80
2019-01-17T15:54:19.836Z,5.43
2019-01-17T15:56:50.620Z,5.07
2019-01-17T15:59:23.404Z,4.63
2019-01-17T16:01:51.987Z,5.30
2019-01-17T16:04:21.823Z,5.60
2019-01-17T16:06:52.571Z,4.57
2019-01-17T16:09:23.518Z,5.00
2019-01-17T16:11:53.132Z,5.13
2019-01-17T16:14:22.986Z,4.87
2019-01-17T16:16:52.795Z,5.57
2019-01-17T16:19:22.586Z,4.53
2019-01-17T16:21:53.353Z,5.13
2019-01-17T16:24:23.186Z,4.47
2019-01-17T16:26:53.421Z,5.17
2019-01-17T16:29:24.256Z,5.20
2019-01-17T16:31:54.097Z,5.87
2019-01-17T16:34:25.808Z,5.87
2019-01-17T16:36:55.708Z,5.30
2019-01-17T16:39:26.722Z,5.27
2019-01-17T16:41:56.527Z,6.20
2019-01-17T16:44:26.314Z,5.50
2019-01-17T16:46:57.283Z,5.37
2019-01-17T16:49:27.055Z,5.10
2019-01-17T16:52:01.492Z,6.73
2019-01-17T16:54:31.246Z,5.20
2019-01-17T16:57:01.173Z,6.53
2019-01-17T16:59:31.130Z,6.90
2019-01-17T17:02:02.769Z,5.97
2019-01-17T17:04:32.380Z,5.13
2019-01-17T17:07:02.159Z,6.60
2019-01-17T17:09:31.944Z,5.60
2019-01-17T17:12:01.785Z,4.40
2019-01-17T17:14:31.682Z,4.90
2019-01-17T17:17:01.544Z,5.07
2019-01-17T17:19:31.758Z,4.90
2019-01-17T17:22:02.859Z,4.23
2019-01-17T17:24:32.726Z,5.10
2019-01-17T17:27:03.377Z,4.47
2019-01-17T17:29:33.184Z,5.23
2019-01-17T17:32:03.029Z,4.73
2019-01-17T17:34:32.852Z,4.77
2019-01-17T17:37:02.709Z,4.40
2019-01-17T17:39:32.868Z,4.63
2019-01-17T17:42:06.344Z,4.63
2019-01-17T17:44:36.227Z,5.33
2019-01-17T17:47:06.972Z,6.13
2019-01-17T17:49:38.272Z,5.83
2019-01-17T17:52:08.285Z,5.53
2019-01-17T17:54:39.517Z,5.77
2019-01-17T17:57:12.325Z,6.20
2019-01-17T17:59:43.299Z,6.70
2019-01-17T18:02:20.533Z,6.93
2019-01-17T18:04:51.972Z,7.97
2019-01-17T18:07:23.325Z,6.80
2019-01-17T18:09:55.045Z,6.53
2019-01-17T18:12:25.007Z,7.47
2019-01-17T18:14:54.729Z,7.77
2019-01-17T18:17:24.784Z,7.70
2019-01-17T18:19:55.726Z,8.40
2019-01-17T18:22:26.980Z,8.17
2019-01-17T18:25:03.342Z,6.97
2019-01-17T18:27:37.353Z,7.87
2019-01-17T18:30:15.511Z,6.50
2019-01-17T18:32:46.306Z,7.63
2019-01-17T18:35:16.092Z,8.23
2019-01-17T18:37:52.041Z,7.33
2019-01-17T18:40:22.287Z,7.73
2019-01-17T18:42:51.986Z,7.00
2019-01-17T18:45:24.331Z,7.00
2019-01-17T18:47:54.274Z,8.10
2019-01-17T18:50:32.357Z,10.10
2019-01-17T18:53:02.155Z,10.30
2019-01-17T18:55:37.361Z,8.57
2019-01-17T18:58:07.220Z,9.17
2019-01-17T19:00:39.006Z,10.20
2019-01-17T19:03:11.823Z,9.80
2019-01-17T19:05:41.857Z,9.20
2019-01-17T19:08:12.045Z,9.03
2019-01-17T19:10:47.107Z,8.90
2019-01-17T19:13:17.086Z,8.83
2019-01-17T19:15:47.268Z,8.37
2019-01-17T19:18:17.261Z,9.27
2019-01-17T19:20:47.423Z,8.60
2019-01-17T19:23:18.290Z,6.67
2019-01-17T19:25:48.039Z,9.07
2019-01-17T19:28:22.305Z,7.47
2019-01-17T19:30:53.155Z,8.20
2019-01-17T19:33:24.412Z,9.60
2019-01-17T19:35:54.250Z,6.97
2019-01-17T19:38:25.065Z,7.13
2019-01-17T19:40:54.771Z,6.70
2019-01-17T19:43:27.738Z,6.40
2019-01-17T19:45:57.765Z,8.23
2019-01-17T19:48:27.756Z,9.80
2019-01-17T19:51:01.431Z,10.03
2019-01-17T19:53:30.556Z,9.63
2019-01-17T19:56:00.292Z,9.40
2019-01-17T19:58:31.058Z,10.13
2019-01-17T20:01:07.396Z,10.57
2019-01-17T20:03:37.266Z,8.70
2019-01-17T20:06:06.897Z,8.80
2019-01-17T20:08:36.624Z,9.70
2019-01-17T20:11:06.426Z,8.83
2019-01-17T20:13:37.208Z,8.30
2019-01-17T20:16:07.260Z,8.83
2019-01-17T20:18:38.232Z,8.00
2019-01-17T20:21:08.075Z,9.67
2019-01-17T20:23:38.064Z,9.13
2019-01-17T20:26:07.950Z,10.57
2019-01-17T20:28:40.577Z,11.87
2019-01-17T20:31:10.374Z,9.30
2019-01-17T20:33:40.157Z,9.87
2019-01-17T20:36:13.867Z,10.47
2019-01-17T20:38:43.894Z,9.87
2019-01-17T20:41:13.830Z,9.50
2019-01-17T20:43:47.319Z,8.20
2019-01-17T20:46:19.728Z,9.63
2019-01-17T20:48:48.888Z,10.73
2019-01-17T20:51:18.705Z,10.97
2019-01-17T20:53:50.696Z,10.30
2019-01-17T20:56:20.460Z,10.00
2019-01-17T20:58:50.453Z,11.70
2019-01-17T21:01:42.817Z,10.80
2019-01-17T21:04:12.932Z,11.03
2019-01-17T21:06:43.806Z,9.53
2019-01-17T21:09:16.703Z,10.50
2019-01-17T21:11:47.664Z,10.43
2019-01-17T21:14:19.426Z,7.90
2019-01-17T21:16:49.202Z,8.67
2019-01-17T21:19:19.214Z,9.73
2019-01-17T21:21:49.070Z,9.03
2019-01-17T21:24:19.915Z,10.07
2019-01-17T21:26:49.780Z,9.27
2019-01-17T21:29:19.555Z,9.27
2019-01-17T21:31:51.753Z,9.00
2019-01-17T21:34:21.094Z,6.90
2019-01-17T21:36:50.869Z,7.93
2019-01-17T21:39:21.725Z,6.67
2019-01-17T21:41:54.246Z,7.60
2019-01-17T21:44:23.959Z,8.10
2019-01-17T21:46:53.780Z,7.63
2019-01-17T21:49:23.732Z,7.20
2019-01-17T21:51:53.528Z,7.17
2019-01-17T21:54:23.284Z,6.23
2019-01-17T21:56:53.091Z,7.13
2019-01-17T21:59:22.723Z,6.00
2019-01-17T22:01:58.166Z,5.40
2019-01-17T22:04:27.849Z,6.70
2019-01-17T22:06:58.545Z,6.20
2019-01-17T22:09:28.278Z,5.70
2019-01-17T22:11:58.105Z,6.80
2019-01-17T22:14:33.635Z,6.80
2019-01-17T22:17:03.394Z,7.10
2019-01-17T22:19:33.158Z,5.50
2019-01-17T22:22:02.820Z,5.73
2019-01-17T22:24:33.410Z,5.90
2019-01-17T22:27:04.411Z,6.10
2019-01-17T22:29:34.017Z,5.90
2019-01-17T22:32:03.829Z,7.00
2019-01-17T22:34:33.690Z,5.70
2019-01-17T22:37:05.036Z,6.30
2019-01-17T22:39:34.696Z,7.13
2019-01-17T22:42:04.880Z,7.20
2019-01-17T22:44:36.463Z,6.20
2019-01-17T22:47:06.417Z,5.83
2019-01-17T22:49:36.242Z,6.53
2019-01-17T22:52:06.135Z,6.13
2019-01-17T22:54:36.831Z,7.40
2019-01-17T22:57:06.951Z,6.43
2019-01-17T22:59:36.680Z,6.37
2019-01-17T23:02:06.752Z,6.40
2019-01-17T23:04:36.414Z,7.27
2019-01-17T23:07:10.142Z,6.10
2019-01-17T23:09:40.057Z,6.43
2019-01-17T23:12:09.637Z,6.13
2019-01-17T23:14:39.421Z,7.00
2019-01-17T23:17:09.119Z,7.83
2019-01-17T23:19:40.342Z,7.87
2019-01-17T23:22:10.004Z,5.73
2019-01-17T23:24:39.818Z,6.50
2019-01-17T23:27:09.502Z,7.47
2019-01-17T23:29:39.434Z,6.63
2019-01-17T23:32:10.500Z,7.00
2019-01-17T23:34:40.530Z,7.00
2019-01-17T23:37:10.468Z,5.33
2019-01-17T23:39:40.261Z,5.60
2019-01-17T23:42:10.324Z,5.73
2019-01-17T23:44:40.084Z,5.90
2019-01-17T23:47:10.032Z,5.67
2019-01-17T23:49:39.850Z,5.30
2019-01-17T23:52:09.690Z,6.80
2019-01-17T23:54:39.511Z,6.83
2019-01-17T23:57:09.548Z,7.07
2019-01-17T23:59:40.310Z,7.33
